createdAt,value
2018-04-08T00:01:41.428Z,11.80
2018-04-08T00:04:08.967Z,11.70
2018-04-08T00:06:36.433Z,11.70
2018-04-08T00:09:03.919Z,11.70
2018-04-08T00:11:32.159Z,11.80
2018-04-08T00:13:59.727Z,11.80
2018-04-08T00:16:27.194Z,11.80
2018-04-08T00:18:54.731Z,11.80
2018-04-08T00:21:22.180Z,11.80
2018-04-08T00:23:49.680Z,11.80
2018-04-08T00:26:17.880Z,11.70
2018-04-08T00:28:45.328Z,11.70
2018-04-08T00:31:12.792Z,11.70
2018-04-08T00:33:40.252Z,11.70
2018-04-08T00:36:07.704Z,11.70
2018-04-08T00:38:35.166Z,11.70
2018-04-08T00:41:02.660Z,11.80
2018-04-08T00:43:30.215Z,11.80
2018-04-08T00:45:57.771Z,11.90
2018-04-08T00:48:25.208Z,11.90
2018-04-08T00:50:52.776Z,11.90
2018-04-08T00:53:20.224Z,11.90
2018-04-08T00:55:47.798Z,11.90
2018-04-08T00:58:15.262Z,11.80
2018-04-08T01:00:42.724Z,11.80
2018-04-08T01:03:10.259Z,11.70
2018-04-08T01:05:37.719Z,11.60
2018-04-08T01:08:05.174Z,11.50
2018-04-08T01:10:32.747Z,11.50
2018-04-08T01:13:00.308Z,11.50
2018-04-08T01:15:27.844Z,11.40
2018-04-08T01:17:55.313Z,11.30
2018-04-08T01:20:22.789Z,11.20
2018-04-08T01:22:51.019Z,11.00
2018-04-08T01:25:18.580Z,11.00
2018-04-08T01:27:46.031Z,10.90
2018-04-08T01:30:13.475Z,10.90
2018-04-08T01:32:41.056Z,10.80
2018-04-08T01:35:08.506Z,10.70
2018-04-08T01:37:35.960Z,10.70
2018-04-08T01:40:03.504Z,10.60
2018-04-08T01:42:31.023Z,10.60
2018-04-08T01:44:59.245Z,10.50
2018-04-08T01:47:26.709Z,10.50
2018-04-08T01:49:54.248Z,10.50
2018-04-08T01:52:21.727Z,10.50
2018-04-08T01:54:49.198Z,10.50
2018-04-08T01:57:16.743Z,10.60
2018-04-08T01:59:44.231Z,10.60
2018-04-08T02:02:12.450Z,10.50
2018-04-08T02:04:39.907Z,10.50
2018-04-08T02:07:07.362Z,10.40
2018-04-08T02:09:34.814Z,10.30
2018-04-08T02:12:02.279Z,10.20
2018-04-08T02:14:29.857Z,10.10
2018-04-08T02:16:57.430Z,10.00
2018-04-08T02:19:24.948Z,10.00
2018-04-08T02:21:53.104Z,9.80
2018-04-08T02:24:20.584Z,9.80
2018-04-08T02:26:48.151Z,9.70
2018-04-08T02:29:15.617Z,9.60
2018-04-08T02:31:43.166Z,9.50
2018-04-08T02:34:10.625Z,9.50
2018-04-08T02:36:38.075Z,9.40
2018-04-08T02:39:05.532Z,9.40
2018-04-08T02:41:33.755Z,9.30
2018-04-08T02:44:01.990Z,9.20
2018-04-08T02:46:29.564Z,9.20
2018-04-08T02:48:57.919Z,9.10
2018-04-08T02:51:25.465Z,9.10
2018-04-08T02:53:52.928Z,9.10
2018-04-08T02:56:20.396Z,9.00
2018-04-08T02:58:47.847Z,8.90
2018-04-08T03:01:15.385Z,8.90
2018-04-08T03:03:42.845Z,8.80
2018-04-08T03:06:10.305Z,8.80
2018-04-08T03:08:37.873Z,8.70
2018-04-08T03:11:05.439Z,8.70
2018-04-08T03:13:32.977Z,8.70
2018-04-08T03:16:00.444Z,8.60
2018-04-08T03:18:27.996Z,8.60
2018-04-08T03:20:56.274Z,8.50
2018-04-08T03:23:23.729Z,8.40
2018-04-08T03:25:51.274Z,8.40
2018-04-08T03:28:18.722Z,8.30
2018-04-08T03:30:46.204Z,8.30
2018-04-08T03:33:13.671Z,8.30
2018-04-08T03:35:41.880Z,8.20
2018-04-08T03:38:09.586Z,8.20
2018-04-08T03:40:37.023Z,8.20
2018-04-08T03:43:04.601Z,8.20
2018-04-08T03:45:33.043Z,8.10
2018-04-08T03:48:00.517Z,8.20
2018-04-08T03:50:27.989Z,8.20
2018-04-08T03:52:55.531Z,8.20
2018-04-08T03:55:23.143Z,8.20
2018-04-08T03:57:50.640Z,8.30
2018-04-08T04:00:18.783Z,8.30
2018-04-08T04:02:46.237Z,8.30
2018-04-08T04:05:13.707Z,8.40
2018-04-08T04:07:41.155Z,8.40
2018-04-08T04:10:08.615Z,8.50
2018-04-08T04:12:36.227Z,8.50
2018-04-08T04:15:03.963Z,8.60
2018-04-08T04:17:31.404Z,8.60
2018-04-08T04:20:10.890Z,8.60
2018-04-08T04:22:51.209Z,8.70
2018-04-08T04:28:14.895Z,8.70
2018-04-08T04:30:42.456Z,8.80
2018-04-08T04:33:10.008Z,8.80
2018-04-08T04:35:37.469Z,8.90
2018-04-08T04:38:04.935Z,8.90
2018-04-08T04:40:32.506Z,9.00
2018-04-08T04:42:59.996Z,9.00
2018-04-08T04:45:27.458Z,9.10
2018-04-08T04:47:54.959Z,9.10
2018-04-08T04:50:22.444Z,9.10
2018-04-08T04:52:50.672Z,9.20
2018-04-08T04:55:18.116Z,9.20
2018-04-08T04:57:45.595Z,9.20
2018-04-08T05:00:13.060Z,9.30
2018-04-08T05:02:40.504Z,9.30
2018-04-08T05:05:08.058Z,9.30
2018-04-08T05:07:35.582Z,9.40
2018-04-08T05:10:03.080Z,9.40
2018-04-08T05:12:30.544Z,9.40
2018-04-08T05:14:58.087Z,9.40
2018-04-08T05:17:25.544Z,9.40
2018-04-08T05:19:53.101Z,9.40
2018-04-08T05:22:21.481Z,9.40
2018-04-08T05:24:48.937Z,9.50
2018-04-08T05:27:16.395Z,9.50
2018-04-08T05:29:43.854Z,9.60
2018-04-08T05:32:11.403Z,9.60
2018-04-08T05:34:38.851Z,9.70
2018-04-08T05:37:06.419Z,9.80
2018-04-08T05:39:33.863Z,9.80
2018-04-08T05:42:01.327Z,9.80
2018-04-08T05:44:28.883Z,9.90
2018-04-08T05:46:56.328Z,9.90
2018-04-08T05:49:23.794Z,10.00
2018-04-08T05:51:51.363Z,10.00
2018-04-08T05:54:18.910Z,10.10
2018-04-08T05:56:46.358Z,10.20
2018-04-08T05:59:13.817Z,10.20
2018-04-08T06:01:41.289Z,10.30
2018-04-08T06:04:08.837Z,10.40
2018-04-08T06:06:36.304Z,10.40
2018-04-08T06:09:03.766Z,10.50
2018-04-08T06:11:31.312Z,10.60
2018-04-08T06:13:58.812Z,10.70
2018-04-08T06:16:26.320Z,10.80
2018-04-08T06:18:54.565Z,11.00
2018-04-08T06:21:22.056Z,11.00
2018-04-08T06:23:49.640Z,11.10
2018-04-08T06:26:17.901Z,11.30
2018-04-08T06:28:45.345Z,11.30
2018-04-08T06:31:12.812Z,11.50
2018-04-08T06:33:40.369Z,11.50
2018-04-08T06:36:07.806Z,11.60
2018-04-08T06:38:35.270Z,11.80
2018-04-08T06:41:02.779Z,11.90
2018-04-08T06:43:30.309Z,12.10
2018-04-08T06:45:57.731Z,12.20
2018-04-08T06:48:25.200Z,12.40
2018-04-08T06:50:52.751Z,12.50
2018-04-08T06:53:20.302Z,12.80
2018-04-08T06:55:47.752Z,13.00
2018-04-08T06:58:15.343Z,13.10
2018-04-08T07:00:43.585Z,13.40
2018-04-08T07:03:11.087Z,13.30
2018-04-08T07:05:39.294Z,13.50
2018-04-08T07:08:06.771Z,13.50
2018-04-08T07:10:34.238Z,13.60
2018-04-08T07:13:01.801Z,13.70
2018-04-08T07:15:29.346Z,13.80
2018-04-08T07:17:56.792Z,13.80
2018-04-08T07:20:24.379Z,13.80
2018-04-08T07:22:51.837Z,13.90
2018-04-08T07:25:19.354Z,14.00
2018-04-08T07:27:46.837Z,14.10
2018-04-08T07:30:14.322Z,14.20
2018-04-08T07:32:42.561Z,14.40
2018-04-08T07:35:10.071Z,14.40
2018-04-08T07:37:37.576Z,14.50
2018-04-08T07:40:05.030Z,14.60
2018-04-08T07:42:32.503Z,14.80
2018-04-08T07:44:59.991Z,14.90
2018-04-08T07:47:28.192Z,15.20
2018-04-08T07:49:55.676Z,15.20
2018-04-08T07:52:23.438Z,15.40
2018-04-08T07:54:50.984Z,15.60
2018-04-08T07:57:18.542Z,15.90
2018-04-08T07:59:46.097Z,16.10
2018-04-08T08:02:13.659Z,16.30
2018-04-08T08:04:41.134Z,16.50
2018-04-08T08:07:08.730Z,16.70
2018-04-08T08:09:36.962Z,17.20
2018-04-08T08:12:04.524Z,17.10
2018-04-08T08:14:31.985Z,17.30
2018-04-08T08:17:00.514Z,17.50
2018-04-08T08:19:28.911Z,17.70
2018-04-08T08:21:56.752Z,17.60
2018-04-08T08:24:24.204Z,17.80
2018-04-08T08:26:51.799Z,17.90
2018-04-08T08:29:19.257Z,18.00
2018-04-08T08:31:46.695Z,18.10
2018-04-08T08:34:14.264Z,18.30
2018-04-08T08:36:41.710Z,18.50
2018-04-08T08:39:09.302Z,18.70
2018-04-08T08:41:36.860Z,18.80
2018-04-08T08:44:04.403Z,19.00
2018-04-08T08:46:31.947Z,19.20
2018-04-08T08:48:59.792Z,19.30
2018-04-08T08:51:27.290Z,19.20
2018-04-08T08:53:54.752Z,19.10
2018-04-08T08:56:22.228Z,19.10
2018-04-08T08:58:50.773Z,19.10
2018-04-08T09:01:18.248Z,19.10
2018-04-08T09:03:45.840Z,19.10
2018-04-08T09:06:13.358Z,19.10
2018-04-08T09:08:40.890Z,19.10
2018-04-08T09:11:08.449Z,19.10
2018-04-08T09:13:35.999Z,19.20
2018-04-08T09:16:03.497Z,19.30
2018-04-08T09:18:31.708Z,19.60
2018-04-08T09:21:05.000Z,19.60
2018-04-08T09:23:33.111Z,19.60
2018-04-08T09:26:02.212Z,19.90
2018-04-08T09:28:29.781Z,19.80
2018-04-08T09:30:58.022Z,20.10
2018-04-08T09:33:25.498Z,20.10
2018-04-08T09:35:52.965Z,20.10
2018-04-08T09:38:20.413Z,20.20
2018-04-08T09:40:47.884Z,20.60
2018-04-08T09:43:16.737Z,21.40
2018-04-08T09:45:44.227Z,21.30
2018-04-08T09:48:12.542Z,21.70
2018-04-08T09:50:40.033Z,21.60
2018-04-08T09:53:07.584Z,21.50
2018-04-08T09:55:35.522Z,21.50
2018-04-08T09:58:07.792Z,21.40
2018-04-08T10:03:47.428Z,21.20
2018-04-08T10:06:15.737Z,21.20
2018-04-08T10:08:43.314Z,21.20
2018-04-08T10:11:11.124Z,21.30
2018-04-08T10:13:39.439Z,21.60
2018-04-08T10:16:07.184Z,21.50
2018-04-08T10:18:34.759Z,22.20
2018-04-08T10:21:02.507Z,22.70
2018-04-08T10:23:30.165Z,22.70
2018-04-08T10:25:57.826Z,22.70
2018-04-08T10:28:25.413Z,22.90
2018-04-08T10:30:52.903Z,23.30
2018-04-08T10:33:20.345Z,23.80
2018-04-08T10:35:47.891Z,24.20
2018-04-08T10:38:15.553Z,24.30
2018-04-08T10:40:43.099Z,24.40
2018-04-08T10:43:10.656Z,24.30
2018-04-08T10:45:38.234Z,24.30
2018-04-08T10:48:05.694Z,24.40
2018-04-08T10:50:33.231Z,24.50
2018-04-08T10:53:00.788Z,24.50
2018-04-08T10:55:28.364Z,24.40
2018-04-08T10:57:55.879Z,24.40
2018-04-08T11:00:23.356Z,24.20
2018-04-08T11:02:50.915Z,24.00
2018-04-08T11:05:18.385Z,24.20
2018-04-08T11:07:45.843Z,24.80
2018-04-08T11:10:14.944Z,25.50
2018-04-08T11:12:42.405Z,25.40
2018-04-08T11:15:10.660Z,25.70
2018-04-08T11:17:38.240Z,25.70
2018-04-08T11:20:05.704Z,25.70
2018-04-08T11:22:33.974Z,25.50
2018-04-08T11:25:01.486Z,25.50
2018-04-08T11:27:29.806Z,25.40
2018-04-08T11:29:58.015Z,25.10
2018-04-08T11:32:25.500Z,25.10
2018-04-08T11:34:53.120Z,24.90
2018-04-08T11:37:20.596Z,24.60
2018-04-08T11:39:48.063Z,24.20
2018-04-08T11:42:15.522Z,24.10
2018-04-08T11:44:43.002Z,24.40
2018-04-08T11:47:10.505Z,24.70
2018-04-08T11:49:37.972Z,25.10
2018-04-08T11:52:05.452Z,25.20
2018-04-08T11:54:32.916Z,25.20
2018-04-08T11:57:00.366Z,25.10
2018-04-08T11:59:27.833Z,25.00
2018-04-08T12:01:55.312Z,24.60
2018-04-08T12:04:23.545Z,24.30
2018-04-08T12:06:51.209Z,24.30
2018-04-08T12:09:18.672Z,24.30
2018-04-08T12:11:46.136Z,24.40
2018-04-08T12:14:13.595Z,24.40
2018-04-08T12:16:41.135Z,24.40
2018-04-08T12:19:08.627Z,24.50
2018-04-08T12:21:36.121Z,24.50
2018-04-08T12:24:03.576Z,24.50
2018-04-08T12:26:33.443Z,24.40
2018-04-08T12:29:00.907Z,24.40
2018-04-08T12:31:29.140Z,24.40
2018-04-08T12:33:56.600Z,24.40
2018-04-08T12:36:24.036Z,24.70
2018-04-08T12:38:51.505Z,25.00
2018-04-08T12:41:19.002Z,25.30
2018-04-08T12:43:46.463Z,25.70
2018-04-08T12:46:14.701Z,26.50
2018-04-08T12:48:42.161Z,26.40
2018-04-08T12:51:09.728Z,26.40
2018-04-08T12:53:37.174Z,26.30
2018-04-08T12:56:04.636Z,26.30
2018-04-08T12:58:32.100Z,26.00
2018-04-08T13:00:59.647Z,25.60
2018-04-08T13:03:27.195Z,25.40
2018-04-08T13:05:54.784Z,25.30
2018-04-08T13:08:23.055Z,25.10
2018-04-08T13:10:50.613Z,25.10
2018-04-08T13:13:18.932Z,25.00
2018-04-08T13:15:46.435Z,25.00
2018-04-08T13:18:13.898Z,25.00
2018-04-08T13:20:41.343Z,25.20
2018-04-08T13:23:10.492Z,25.90
2018-04-08T13:25:37.947Z,25.90
2018-04-08T13:28:05.418Z,26.40
2018-04-08T13:30:32.862Z,26.90
2018-04-08T13:33:00.355Z,27.00
2018-04-08T13:35:27.911Z,26.70
2018-04-08T13:37:55.359Z,26.50
2018-04-08T13:40:22.811Z,26.30
2018-04-08T13:42:50.287Z,26.30
2018-04-08T13:45:17.823Z,26.40
2018-04-08T13:47:45.277Z,26.30
2018-04-08T13:50:12.839Z,26.20
2018-04-08T13:52:40.304Z,26.10
2018-04-08T13:55:07.773Z,26.10
2018-04-08T13:57:35.311Z,26.10
2018-04-08T14:00:02.789Z,26.00
2018-04-08T14:02:30.260Z,26.00
2018-04-08T14:04:58.470Z,26.00
2018-04-08T14:07:25.954Z,25.90
2018-04-08T14:09:53.518Z,25.90
2018-04-08T14:12:21.077Z,25.80
2018-04-08T14:14:48.636Z,25.80
2018-04-08T14:17:16.208Z,25.90
2018-04-08T14:19:43.859Z,26.00
2018-04-08T14:22:11.408Z,26.10
2018-04-08T14:24:38.875Z,26.20
2018-04-08T14:27:06.453Z,26.30
2018-04-08T14:29:33.872Z,26.30
2018-04-08T14:32:01.324Z,26.10
2018-04-08T14:34:28.808Z,26.00
2018-04-08T14:36:57.071Z,26.00
2018-04-08T14:39:24.527Z,26.10
2018-04-08T14:41:52.063Z,26.10
2018-04-08T14:44:20.044Z,26.20
2018-04-08T14:46:47.504Z,26.20
2018-04-08T14:49:14.948Z,26.10
2018-04-08T14:51:42.406Z,26.10
2018-04-08T14:54:09.981Z,26.20
2018-04-08T14:56:37.795Z,26.00
2018-04-08T14:59:05.234Z,25.90
2018-04-08T15:01:32.736Z,25.80
2018-04-08T15:04:00.189Z,25.80
2018-04-08T15:06:27.645Z,25.90
2018-04-08T15:08:55.092Z,25.90
2018-04-08T15:11:22.549Z,25.90
2018-04-08T15:13:49.998Z,25.90
2018-04-08T15:16:17.463Z,25.90
2018-04-08T15:18:44.948Z,26.00
2018-04-08T15:21:12.387Z,26.00
2018-04-08T15:23:39.831Z,25.90
2018-04-08T15:26:07.319Z,26.00
2018-04-08T15:28:35.636Z,25.70
2018-04-08T15:31:03.065Z,25.70
2018-04-08T15:33:32.324Z,25.40
2018-04-08T15:38:21.175Z,25.50
2018-04-08T15:40:48.621Z,25.40
2018-04-08T15:43:16.096Z,25.40
2018-04-08T15:45:43.565Z,25.30
2018-04-08T15:48:11.032Z,25.10
2018-04-08T15:50:38.471Z,25.10
2018-04-08T15:53:06.253Z,25.10
2018-04-08T15:55:33.725Z,25.10
2018-04-08T15:58:01.236Z,25.00
2018-04-08T16:00:28.706Z,24.90
2018-04-08T16:02:56.189Z,24.90
2018-04-08T16:05:24.426Z,24.80
2018-04-08T16:07:51.872Z,24.80
2018-04-08T16:10:19.335Z,24.70
2018-04-08T16:12:46.806Z,24.60
2018-04-08T16:15:14.594Z,24.70
2018-04-08T16:17:42.032Z,24.60
2018-04-08T16:20:09.540Z,24.60
2018-04-08T16:22:37.020Z,24.60
2018-04-08T16:25:04.484Z,24.50
2018-04-08T16:27:32.086Z,24.50
2018-04-08T16:30:00.340Z,24.40
2018-04-08T16:32:28.563Z,24.40
2018-04-08T16:34:56.024Z,24.30
2018-04-08T16:37:23.500Z,24.30
2018-04-08T16:39:51.083Z,24.20
2018-04-08T16:42:19.301Z,24.00
2018-04-08T16:44:46.759Z,24.00
2018-04-08T16:47:14.569Z,23.80
2018-04-08T16:49:42.141Z,23.70
2018-04-08T16:52:09.674Z,23.70
2018-04-08T16:54:37.132Z,23.60
2018-04-08T16:57:04.697Z,23.50
2018-04-08T16:59:32.422Z,23.40
2018-04-08T17:01:59.944Z,23.40
2018-04-08T17:04:28.221Z,23.30
2018-04-08T17:06:55.628Z,23.30
2018-04-08T17:09:23.116Z,23.20
2018-04-08T17:11:50.647Z,23.10
2018-04-08T17:14:18.156Z,23.00
2018-04-08T17:16:45.658Z,22.90
2018-04-08T17:19:13.100Z,22.80
2018-04-08T17:21:40.580Z,22.70
2018-04-08T17:24:08.064Z,22.60
2018-04-08T17:26:36.640Z,22.30
2018-04-08T17:29:04.869Z,22.30
2018-04-08T17:31:32.432Z,22.20
2018-04-08T17:33:59.916Z,22.10
2018-04-08T17:36:27.463Z,22.00
2018-04-08T17:38:54.940Z,21.90
2018-04-08T17:41:23.328Z,21.80
2018-04-08T17:43:50.780Z,21.70
2018-04-08T17:46:19.027Z,21.30
2018-04-08T17:48:46.853Z,21.30
2018-04-08T17:51:14.287Z,21.10
2018-04-08T17:53:41.996Z,20.90
2018-04-08T17:56:09.484Z,20.70
2018-04-08T17:58:37.020Z,20.50
2018-04-08T18:01:04.491Z,20.30
2018-04-08T18:03:31.979Z,20.20
2018-04-08T18:05:59.497Z,20.00
2018-04-08T18:08:27.134Z,19.80
2018-04-08T18:10:54.709Z,19.60
2018-04-08T18:13:22.187Z,19.50
2018-04-08T18:15:50.449Z,19.10
2018-04-08T18:18:18.719Z,19.00
2018-04-08T18:20:46.172Z,19.00
2018-04-08T18:23:13.715Z,18.80
2018-04-08T18:25:41.161Z,18.60
2018-04-08T18:28:08.738Z,18.50
2018-04-08T18:30:36.257Z,18.30
2018-04-08T18:33:04.458Z,18.00
2018-04-08T18:35:31.892Z,18.00
2018-04-08T18:37:59.377Z,17.90
2018-04-08T18:40:27.592Z,17.60
2018-04-08T18:42:55.116Z,17.60
2018-04-08T18:45:22.577Z,17.50
2018-04-08T18:47:50.041Z,17.40
2018-04-08T18:50:18.259Z,17.20
2018-04-08T18:52:45.738Z,17.10
2018-04-08T18:55:13.297Z,17.00
2018-04-08T18:57:40.858Z,16.90
2018-04-08T19:00:08.422Z,16.80
2018-04-08T19:02:36.036Z,16.70
2018-04-08T19:05:04.259Z,16.40
2018-04-08T19:07:31.702Z,16.40
2018-04-08T19:09:59.161Z,16.30
2018-04-08T19:12:26.631Z,16.20
2018-04-08T19:18:05.640Z,16.00
2018-04-08T19:20:33.082Z,15.90
2018-04-08T19:23:00.676Z,15.80
2018-04-08T19:25:28.141Z,15.70
2018-04-08T19:27:55.577Z,15.60
2018-04-08T19:30:23.033Z,15.50
2018-04-08T19:32:50.538Z,15.40
2018-04-08T19:35:18.775Z,15.20
2018-04-08T19:37:46.213Z,15.20
2018-04-08T19:40:13.683Z,15.10
2018-04-08T19:42:41.156Z,15.00
2018-04-08T19:45:09.404Z,14.80
2018-04-08T19:47:36.861Z,14.80
2018-04-08T19:50:04.460Z,14.80
2018-04-08T19:52:33.020Z,14.60
2018-04-08T19:55:02.044Z,14.50
2018-04-08T19:57:29.547Z,14.50
2018-04-08T19:59:57.031Z,14.50
2018-04-08T20:02:24.588Z,14.40
2018-04-08T20:04:52.115Z,14.30
2018-04-08T20:07:19.584Z,14.30
2018-04-08T20:09:47.088Z,14.20
2018-04-08T20:12:14.596Z,14.10
2018-04-08T20:14:42.252Z,14.00
2018-04-08T20:17:09.702Z,14.00
2018-04-08T20:19:37.191Z,13.80
2018-04-08T20:22:04.728Z,13.80
2018-04-08T20:24:32.174Z,13.70
2018-04-08T20:26:59.667Z,13.70
2018-04-08T20:29:27.939Z,13.50
2018-04-08T20:31:56.397Z,13.40
2018-04-08T20:34:23.975Z,13.40
2018-04-08T20:36:52.199Z,13.30
2018-04-08T20:39:19.715Z,13.20
2018-04-08T20:41:47.951Z,13.20
2018-04-08T20:44:15.400Z,13.10
2018-04-08T20:46:42.960Z,13.10
2018-04-08T20:49:10.424Z,13.10
2018-04-08T20:51:37.979Z,13.10
2018-04-08T20:54:05.530Z,13.00
2018-04-08T20:56:33.122Z,12.90
2018-04-08T20:59:01.340Z,12.80
2018-04-08T21:01:28.790Z,12.80
2018-04-08T21:03:56.310Z,12.80
2018-04-08T21:06:23.941Z,12.70
2018-04-08T21:08:51.551Z,12.70
2018-04-08T21:11:19.062Z,12.60
2018-04-08T21:13:46.510Z,12.60
2018-04-08T21:16:13.961Z,12.50
2018-04-08T21:18:41.528Z,12.50
2018-04-08T21:21:09.084Z,12.50
2018-04-08T21:23:36.642Z,12.50
2018-04-08T21:26:04.217Z,12.40
2018-04-08T21:28:31.856Z,12.40
2018-04-08T21:30:59.298Z,12.40
2018-04-08T21:33:26.740Z,12.30
2018-04-08T21:35:54.225Z,12.30
2018-04-08T21:38:21.781Z,12.20
2018-04-08T21:40:49.256Z,12.20
2018-04-08T21:43:17.501Z,12.20
2018-04-08T21:45:44.959Z,12.10
2018-04-08T21:48:12.393Z,12.10
2018-04-08T21:50:39.876Z,12.10
2018-04-08T21:53:07.323Z,12.00
2018-04-08T21:55:34.802Z,12.00
2018-04-08T21:58:02.265Z,11.90
2018-04-08T22:00:29.804Z,11.90
2018-04-08T22:02:57.652Z,11.90
2018-04-08T22:05:25.194Z,11.90
2018-04-08T22:07:52.751Z,11.90
2018-04-08T22:10:20.447Z,11.80
2018-04-08T22:12:47.896Z,11.80
2018-04-08T22:15:15.361Z,11.80
2018-04-08T22:17:42.819Z,11.80
2018-04-08T22:20:10.267Z,11.80
2018-04-08T22:22:37.748Z,11.70
2018-04-08T22:25:05.959Z,11.70
2018-04-08T22:27:33.426Z,11.70
2018-04-08T22:30:00.904Z,11.80
2018-04-08T22:32:28.388Z,11.80
2018-04-08T22:34:56.709Z,11.70
2018-04-08T22:37:24.174Z,11.70
2018-04-08T22:39:51.649Z,11.60
2018-04-08T22:42:19.230Z,11.50
2018-04-08T22:44:46.771Z,11.50
2018-04-08T22:47:14.319Z,11.40
2018-04-08T22:49:41.898Z,11.30
2018-04-08T22:52:09.444Z,11.30
2018-04-08T22:54:36.908Z,11.30
2018-04-08T22:57:04.374Z,11.20
2018-04-08T22:59:32.078Z,11.20
2018-04-08T23:01:59.515Z,11.10
2018-04-08T23:04:27.011Z,11.10
2018-04-08T23:06:54.476Z,11.10
2018-04-08T23:09:21.925Z,11.00
2018-04-08T23:11:49.502Z,11.00
2018-04-08T23:14:17.048Z,10.90
2018-04-08T23:16:44.844Z,10.90
2018-04-08T23:19:13.085Z,10.80
2018-04-08T23:21:40.583Z,10.80
2018-04-08T23:24:08.094Z,10.80
2018-04-08T23:26:35.587Z,10.80
2018-04-08T23:29:03.826Z,10.70
2018-04-08T23:31:31.279Z,10.70
2018-04-08T23:33:58.844Z,10.70
2018-04-08T23:36:26.411Z,10.70
2018-04-08T23:38:53.970Z,10.70
2018-04-08T23:41:21.412Z,10.70
2018-04-08T23:43:56.284Z,10.60
2018-04-08T23:46:24.521Z,10.60
2018-04-08T23:48:52.075Z,10.50
2018-04-08T23:51:19.560Z,10.50
2018-04-08T23:53:47.033Z,10.50
2018-04-08T23:56:14.495Z,10.40
2018-04-08T23:58:41.993Z,10.40
